Time;durP1;ratioP1;P1;durP2;ratioP2;P2;SDS_P1;SDS_P2;PMS_P1;PMS_P2;Temp;Humidity;BMP_temperature;BMP_pressure;BME280_temperature;BME280_humidity;BME280_pressure;Samples;Min_cycle;Max_cycle;Signal;HPM_P1;HPM_P2
2022/01/16 00:04:06;;;;;;;41.70;22.25;;;;;;;4.36;100.00;102102.50;10374759;28;20046;-63
2022/01/16 00:09:28;;;;;;;42.85;21.98;;;;;;;4.49;100.00;102091.88;10380157;28;20061;-64
2022/01/16 00:14:51;;;;;;;41.83;21.98;;;;;;;4.49;100.00;102068.66;10390039;28;20045;-64
2022/01/16 00:20:13;;;;;;;43.90;24.05;;;;;;;4.40;100.00;102099.81;10389097;28;20050;-63
2022/01/16 00:25:34;;;;;;;46.38;23.58;;;;;;;4.40;100.00;102092.06;10399673;28;20058;-64
2022/01/16 00:30:56;;;;;;;47.15;23.40;;;;;;;4.47;100.00;102095.38;10375235;28;20052;-64
2022/01/16 00:36:19;;;;;;;42.70;22.88;;;;;;;4.43;100.00;102098.91;10408616;28;20061;-64
2022/01/16 00:41:42;;;;;;;56.25;25.70;;;;;;;4.36;100.00;102076.69;10414583;28;20053;-64
2022/01/16 00:47:04;;;;;;;47.67;23.27;;;;;;;4.42;100.00;102079.13;10413232;28;20053;-63
2022/01/16 00:52:25;;;;;;;53.75;25.20;;;;;;;4.44;100.00;102054.13;10413697;28;20041;-64
2022/01/16 00:57:47;;;;;;;54.50;25.88;;;;;;;4.60;100.00;102045.22;10414421;28;20054;-64
2022/01/16 01:03:09;;;;;;;55.08;27.38;;;;;;;4.65;100.00;102028.72;10412835;28;20052;-64
2022/01/16 01:08:30;;;;;;;53.40;26.20;;;;;;;4.55;100.00;102041.84;10399559;28;20283;-63
2022/01/16 01:19:28;;;;;;;50.35;24.60;;;;;;;4.53;100.00;102022.97;10413123;28;20417;-64
2022/01/16 01:24:50;;;;;;;40.47;20.33;;;;;;;4.60;100.00;102034.88;10412419;28;20041;-65
2022/01/16 01:30:15;;;;;;;39.53;20.52;;;;;;;4.59;100.00;102038.34;10387059;28;20049;-64
2022/01/16 01:35:38;;;;;;;36.60;20.00;;;;;;;4.45;100.00;102045.53;10394424;28;20056;-63
2022/01/16 01:41:00;;;;;;;39.20;20.52;;;;;;;4.62;100.00;102058.94;10412148;28;20050;-64
2022/01/16 01:52:03;;;;;;;39.10;20.02;;;;;;;4.47;100.00;101971.47;10401598;28;20124;-63
2022/01/16 01:57:25;;;;;;;36.97;20.02;;;;;;;4.44;100.00;101962.06;10396264;28;20164;-64
2022/01/16 02:03:49;;;;;;;37.80;19.27;;;;;;;4.33;100.00;101994.16;10410287;28;20045;-64
2022/01/16 02:08:39;;;;;;;34.10;19.63;;;;;;;4.37;100.00;102008.66;10403595;28;20057;-64
2022/01/16 02:31:19;;;;;;;43.33;21.55;;;;;;;4.11;100.00;101992.88;10388498;28;20049;-63
2022/01/16 02:36:48;;;;;;;42.78;22.17;;;;;;;4.06;100.00;102011.03;10400467;28;20057;-64
2022/01/16 02:42:11;;;;;;;43.85;22.08;;;;;;;4.02;100.00;102003.38;10394857;28;20041;-63
2022/01/16 02:47:33;;;;;;;42.67;21.40;;;;;;;4.24;100.00;102009.81;10415758;28;20041;-65
2022/01/16 02:53:15;;;;;;;45.97;23.90;;;;;;;4.12;100.00;102003.19;10408242;28;20041;-64
2022/01/16 02:58:36;;;;;;;44.72;23.20;;;;;;;4.31;100.00;102001.06;10409815;28;20053;-64
2022/01/16 03:03:58;;;;;;;54.53;27.67;;;;;;;4.27;100.00;101991.69;10408477;28;20053;-64
2022/01/16 03:09:21;;;;;;;52.13;25.77;;;;;;;3.90;98.40;101977.81;10406049;28;20046;-64
2022/01/16 03:14:43;;;;;;;51.70;26.10;;;;;;;3.81;99.67;101976.28;10369017;28;20049;-63
2022/01/16 03:25:46;;;;;;;51.70;25.48;;;;;;;3.78;98.65;101974.63;10437286;28;20140;-63
2022/01/16 03:31:08;;;;;;;53.33;24.25;;;;;;;3.91;99.08;101977.78;10412842;28;20049;-63
2022/01/16 03:36:30;;;;;;;45.35;22.13;;;;;;;3.60;99.82;101977.53;10422681;28;20532;-63
2022/01/16 03:41:52;;;;;;;49.70;22.80;;;;;;;3.48;98.24;101968.31;10453618;28;20394;-64
2022/01/16 03:47:13;;;;;;;45.17;22.35;;;;;;;3.40;99.89;101954.69;10385915;28;20049;-64
2022/01/16 03:52:35;;;;;;;44.38;21.25;;;;;;;3.40;99.81;101964.16;10387052;28;20076;-64
2022/01/16 03:58:01;;;;;;;47.67;21.50;;;;;;;3.45;99.72;101963.19;10416685;28;20065;-63
2022/01/16 04:03:23;;;;;;;50.17;22.63;;;;;;;3.29;100.00;101966.03;10415328;28;20071;-64
2022/01/16 04:08:44;;;;;;;57.60;25.50;;;;;;;3.36;100.00;101973.66;10416182;28;20413;-64
2022/01/16 04:14:09;;;;;;;63.63;24.67;;;;;;;3.43;100.00;101990.72;10414785;28;20556;-64
2022/01/16 04:19:31;;;;;;;65.80;27.00;;;;;;;3.26;100.00;101982.41;10409888;28;20415;-64
2022/01/16 04:24:52;;;;;;;82.18;32.10;;;;;;;3.24;100.00;101968.69;10380050;28;20053;-64
2022/01/16 04:30:15;;;;;;;76.97;31.52;;;;;;;3.25;100.00;101978.13;10392755;28;20050;-65
2022/01/16 04:35:36;;;;;;;91.93;34.30;;;;;;;3.25;100.00;101980.72;10414530;28;20137;-64
2022/01/16 04:46:38;;;;;;;85.50;34.17;;;;;;;3.00;100.00;101958.81;10401215;28;20520;-63
2022/01/16 04:52:00;;;;;;;89.80;35.78;;;;;;;3.25;100.00;101960.09;10414521;28;20512;-63
2022/01/16 04:57:22;;;;;;;86.25;34.38;;;;;;;3.07;100.00;101939.78;10383508;28;20066;-63
2022/01/16 05:02:43;;;;;;;90.25;34.13;;;;;;;3.21;100.00;101937.84;10393753;28;20380;-64
2022/01/16 05:08:05;;;;;;;86.05;34.47;;;;;;;3.17;100.00;101941.38;10373433;28;20085;-64
2022/01/16 05:16:34;;;;;;;76.05;32.03;;;;;;;3.23;100.00;101923.22;10372978;28;20053;-64
2022/01/16 05:19:15;;;;;;;83.10;33.05;;;;;;;3.34;100.00;101920.44;10372833;28;20050;-64
2022/01/16 05:24:36;;;;;;;79.38;31.45;;;;;;;3.26;100.00;101915.44;10375806;28;20045;-64
2022/01/16 05:29:58;;;;;;;80.47;32.60;;;;;;;3.20;100.00;101907.78;10412981;28;20057;-65
2022/01/16 05:35:19;;;;;;;82.60;33.05;;;;;;;3.10;100.00;101905.44;10411654;28;20050;-64
2022/01/16 05:40:43;;;;;;;82.07;33.17;;;;;;;3.15;100.00;101901.91;10412881;28;20057;-64
2022/01/16 05:46:04;;;;;;;80.75;33.00;;;;;;;3.23;100.00;101899.19;10417458;28;20053;-64
2022/01/16 05:51:26;;;;;;;80.90;32.33;;;;;;;3.06;100.00;101881.44;10411599;28;20394;-63
2022/01/16 05:56:47;;;;;;;85.53;32.25;;;;;;;3.10;100.00;101862.47;10411639;28;20494;-64
2022/01/16 06:02:09;;;;;;;84.15;32.45;;;;;;;3.04;100.00;101860.03;10399672;28;20041;-64
2022/01/16 06:07:31;;;;;;;81.18;32.10;;;;;;;3.27;100.00;101869.94;10409224;28;20064;-63
2022/01/16 06:12:54;;;;;;;83.43;32.30;;;;;;;3.12;100.00;101865.88;10370919;28;20057;-63
2022/01/16 06:18:15;;;;;;;87.38;33.38;;;;;;;3.30;100.00;101859.53;10370937;28;20060;-64
2022/01/16 06:23:37;;;;;;;84.05;33.30;;;;;;;3.36;100.00;101855.13;10409166;28;20053;-64
2022/01/16 06:28:59;;;;;;;87.95;32.42;;;;;;;3.29;100.00;101842.38;10410351;28;20060;-64
2022/01/16 06:34:20;;;;;;;86.97;32.95;;;;;;;3.22;100.00;101845.97;10410861;28;20050;-63
2022/01/16 06:39:42;;;;;;;82.60;32.65;;;;;;;3.23;100.00;101843.34;10410669;28;20072;-64
2022/01/16 06:45:08;;;;;;;85.97;32.83;;;;;;;3.34;100.00;101838.88;10409641;28;20046;-64
2022/01/16 06:50:30;;;;;;;82.72;33.10;;;;;;;3.29;100.00;101852.69;10374633;28;20049;-64
2022/01/16 06:55:52;;;;;;;92.00;33.40;;;;;;;3.37;100.00;101854.25;10376058;28;20053;-64
2022/01/16 07:01:14;;;;;;;90.95;33.25;;;;;;;3.25;100.00;101861.38;10410014;28;20052;-63
2022/01/16 07:06:35;;;;;;;84.53;34.40;;;;;;;3.37;100.00;101874.84;10379883;28;20053;-64
2022/01/16 07:11:57;;;;;;;89.85;33.20;;;;;;;3.51;100.00;101870.28;10369119;28;20060;-63
2022/01/16 07:17:19;;;;;;;87.75;33.42;;;;;;;3.55;100.00;101882.25;10368818;28;20070;-63
2022/01/16 07:22:41;;;;;;;80.25;32.70;;;;;;;3.54;100.00;101875.41;10368450;28;20069;-64
2022/01/16 07:28:03;;;;;;;82.80;32.95;;;;;;;3.56;100.00;101875.38;10401469;28;20445;-63
2022/01/16 07:33:25;;;;;;;92.32;34.55;;;;;;;3.63;100.00;101880.38;10403973;28;20351;-63
2022/01/16 07:38:47;;;;;;;91.70;35.53;;;;;;;3.73;100.00;101892.22;10399319;28;20061;-64
2022/01/16 07:44:09;;;;;;;98.78;35.17;;;;;;;3.72;100.00;101898.25;10389003;28;20045;-64
2022/01/16 07:49:31;;;;;;;92.60;35.88;;;;;;;3.68;100.00;101904.31;10388087;28;20049;-65
2022/01/16 07:54:52;;;;;;;98.60;37.35;;;;;;;3.66;100.00;101890.63;10368236;28;20058;-64
2022/01/16 08:00:14;;;;;;;92.63;35.63;;;;;;;3.80;100.00;101889.47;10372424;28;20045;-63
2022/01/16 08:05:36;;;;;;;104.63;36.38;;;;;;;3.83;100.00;101894.59;10407992;28;20038;-63
2022/01/16 08:10:57;;;;;;;96.30;35.00;;;;;;;3.69;100.00;101890.56;10373808;28;20422;-64
2022/01/16 08:16:19;;;;;;;96.15;36.65;;;;;;;3.70;100.00;101876.78;10371306;28;20482;-62
2022/01/16 08:21:41;;;;;;;116.03;38.78;;;;;;;3.66;100.00;101880.31;10410775;28;20462;-67
2022/01/16 08:27:03;;;;;;;97.40;36.97;;;;;;;3.78;100.00;101890.41;10441805;28;20053;-65
2022/01/16 08:32:24;;;;;;;107.53;38.28;;;;;;;3.78;100.00;101887.81;10446778;28;20088;-63
2022/01/16 08:37:46;;;;;;;103.82;38.40;;;;;;;3.81;100.00;101885.16;10417371;28;20054;-63
2022/01/16 08:43:11;;;;;;;109.40;38.35;;;;;;;3.78;100.00;101890.41;10416109;28;20399;-65
2022/01/16 08:48:32;;;;;;;110.68;38.65;;;;;;;3.75;100.00;101880.13;10406149;28;20050;-64
2022/01/16 08:53:54;;;;;;;105.65;36.63;;;;;;;3.88;100.00;101879.00;10391112;28;20050;-67
2022/01/16 08:59:15;;;;;;;111.82;38.80;;;;;;;3.88;100.00;101881.59;10391540;28;20045;-64
2022/01/16 09:04:37;;;;;;;104.60;37.88;;;;;;;3.89;100.00;101884.13;10385565;28;20096;-66
2022/01/16 09:10:00;;;;;;;106.95;37.80;;;;;;;3.94;100.00;101889.19;10382434;28;20672;-64
2022/01/16 09:15:23;;;;;;;105.00;37.65;;;;;;;3.96;100.00;101892.56;10384438;28;20394;-65
2022/01/16 09:20:45;;;;;;;106.43;37.35;;;;;;;4.01;100.00;101890.75;10390783;28;20406;-64
2022/01/16 09:26:07;;;;;;;99.97;37.30;;;;;;;3.96;100.00;101890.88;10398001;28;20045;-64
2022/01/16 09:31:29;;;;;;;109.72;35.40;;;;;;;4.03;100.00;101889.84;10382810;28;20053;-64
2022/01/16 09:36:50;;;;;;;100.03;35.80;;;;;;;4.14;100.00;101899.94;10380404;28;20045;-64
2022/01/16 09:42:12;;;;;;;102.43;37.53;;;;;;;4.20;100.00;101900.66;10376692;28;20189;-64
2022/01/16 09:47:34;;;;;;;102.47;36.17;;;;;;;4.30;100.00;101906.47;10412684;28;20585;-64
2022/01/16 09:52:56;;;;;;;91.90;34.97;;;;;;;4.32;100.00;101915.03;10384179;28;20973;-66
2022/01/16 09:58:22;;;;;;;101.07;35.30;;;;;;;4.40;100.00;101913.13;10406626;28;20046;-66
2022/01/16 10:03:46;;;;;;;101.65;35.65;;;;;;;4.49;100.00;101906.03;10389490;28;20048;-65
2022/01/16 10:09:17;;;;;;;92.65;36.47;;;;;;;4.50;100.00;101910.31;10389150;28;20053;-64
2022/01/16 10:14:46;;;;;;;95.18;35.20;;;;;;;4.61;100.00;101910.06;10411517;28;20045;-64
2022/01/16 10:20:09;;;;;;;96.60;34.15;;;;;;;4.60;100.00;101921.28;10384643;28;20052;-64
2022/01/16 10:25:38;;;;;;;88.80;34.65;;;;;;;4.73;100.00;101919.22;10386840;28;20048;-63
2022/01/16 10:30:59;;;;;;;93.78;36.50;;;;;;;4.83;100.00;101920.69;10387402;28;20072;-64
2022/01/16 10:36:36;;;;;;;88.80;34.00;;;;;;;4.96;100.00;101927.25;10386540;28;20050;-64
2022/01/16 10:42:17;;;;;;;84.15;32.65;;;;;;;5.07;100.00;101925.28;10371293;28;20247;-64
2022/01/16 10:47:51;;;;;;;92.38;35.10;;;;;;;5.13;100.00;101930.28;10369909;28;20056;-64
2022/01/16 10:53:19;;;;;;;91.47;34.43;;;;;;;5.15;100.00;101920.75;10394376;28;20048;-63
2022/01/16 10:58:45;;;;;;;78.28;33.38;;;;;;;5.27;100.00;101919.63;10397482;28;20049;-65
2022/01/16 11:04:07;;;;;;;84.07;33.05;;;;;;;5.39;100.00;101909.78;10388538;28;20059;-64
2022/01/16 11:09:31;;;;;;;84.35;33.42;;;;;;;5.51;100.00;101916.38;10371584;28;20060;-64
2022/01/16 11:14:52;;;;;;;85.63;33.58;;;;;;;5.55;100.00;101916.25;10367996;28;20045;-64
2022/01/16 11:20:15;;;;;;;73.20;32.63;;;;;;;5.63;100.00;101916.91;10376725;28;20050;-64
2022/01/16 11:25:38;;;;;;;76.55;32.05;;;;;;;5.68;100.00;101915.03;10377956;28;20111;-64
2022/01/16 11:31:03;;;;;;;77.22;33.53;;;;;;;5.77;100.00;101925.19;10393910;28;20095;-64
2022/01/16 11:36:28;;;;;;;79.30;34.40;;;;;;;5.79;100.00;101918.22;10400400;28;20393;-63
2022/01/16 11:41:56;;;;;;;75.60;31.67;;;;;;;5.84;100.00;101924.97;10397809;28;20050;-65
2022/01/16 11:47:17;;;;;;;73.22;33.65;;;;;;;5.79;100.00;101923.41;10388735;28;20046;-65
2022/01/16 11:52:41;;;;;;;73.60;32.47;;;;;;;5.92;100.00;101898.88;10412962;28;20048;-64
2022/01/16 11:58:03;;;;;;;72.28;33.10;;;;;;;6.05;100.00;101913.16;10390211;28;20239;-64
2022/01/16 12:03:35;;;;;;;77.35;32.95;;;;;;;6.12;100.00;101909.47;10388167;28;20049;-65
2022/01/16 12:08:58;;;;;;;73.70;31.98;;;;;;;6.14;100.00;101918.91;10414607;28;20516;-64
2022/01/16 12:14:46;;;;;;;79.60;34.10;;;;;;;6.18;100.00;101923.13;10415175;28;20593;-64
2022/01/16 12:25:51;;;;;;;71.05;33.28;;;;;;;6.27;100.00;101922.84;10384908;28;20542;-65
2022/01/16 12:31:13;;;;;;;74.78;32.67;;;;;;;6.31;100.00;101924.47;10384637;28;20060;-64
2022/01/16 12:36:34;;;;;;;71.35;32.00;;;;;;;6.36;100.00;101932.09;10412672;28;20547;-65
2022/01/16 12:41:57;;;;;;;65.25;30.67;;;;;;;6.37;100.00;101924.25;10392832;28;20060;-64
2022/01/16 12:47:19;;;;;;;59.38;28.35;;;;;;;6.43;100.00;101929.25;10408085;28;20048;-66
2022/01/16 12:52:48;;;;;;;60.92;27.50;;;;;;;6.53;100.00;101929.84;10396545;28;20049;-65
2022/01/16 12:58:21;;;;;;;61.83;29.15;;;;;;;6.56;100.00;101932.31;10405827;28;20449;-66
2022/01/16 13:03:44;;;;;;;59.75;28.90;;;;;;;6.56;100.00;101909.00;10406535;28;20046;-65
2022/01/16 13:09:07;;;;;;;61.88;27.92;;;;;;;6.60;100.00;101919.25;10413500;28;20053;-65
2022/01/16 13:14:38;;;;;;;60.45;28.23;;;;;;;6.61;100.00;101920.06;10413893;28;20079;-66
2022/01/16 13:20:02;;;;;;;52.50;27.95;;;;;;;6.58;100.00;101923.63;10385610;28;20057;-64
2022/01/16 13:25:24;;;;;;;54.55;26.77;;;;;;;6.59;100.00;101934.81;10379017;28;20081;-65
2022/01/16 13:30:46;;;;;;;49.53;25.67;;;;;;;6.52;100.00;101938.50;10411114;28;20052;-65
2022/01/16 13:36:07;;;;;;;51.50;25.52;;;;;;;6.49;100.00;101938.59;10412504;28;20053;-66
2022/01/16 13:41:29;;;;;;;51.03;26.40;;;;;;;6.56;100.00;101940.94;10393204;28;20049;-65
2022/01/16 13:46:58;;;;;;;55.13;26.73;;;;;;;6.57;100.00;101944.38;10399773;28;20061;-65
2022/01/16 13:52:26;;;;;;;47.92;25.17;;;;;;;6.61;100.00;101953.75;10404841;28;20045;-64
2022/01/16 13:57:49;;;;;;;51.10;24.67;;;;;;;6.61;100.00;101953.75;10411762;28;20057;-65
2022/01/16 14:03:12;;;;;;;50.97;23.85;;;;;;;6.60;100.00;101959.81;10396748;28;20070;-65
2022/01/16 14:08:39;;;;;;;49.40;23.05;;;;;;;6.62;100.00;101955.44;10395253;28;20053;-64
2022/01/16 14:14:03;;;;;;;44.42;22.00;;;;;;;6.65;100.00;101960.53;10375072;28;20155;-65
2022/01/16 14:24:58;;;;;;;48.35;21.33;;;;;;;6.63;100.00;101957.97;10380097;28;20046;-65
2022/01/16 14:30:20;;;;;;;43.78;20.08;;;;;;;6.63;100.00;101970.09;10410098;28;20053;-65
2022/01/16 14:35:42;;;;;;;34.97;18.17;;;;;;;6.62;100.00;101971.00;10409235;28;20049;-65
2022/01/16 14:41:04;;;;;;;43.45;18.00;;;;;;;6.63;100.00;101983.06;10386772;28;20723;-65
2022/01/16 14:46:28;;;;;;;38.28;17.33;;;;;;;6.66;100.00;101980.38;10409580;28;20056;-64
2022/01/16 14:51:50;;;;;;;36.60;16.77;;;;;;;6.64;100.00;101995.13;10391872;28;20057;-65
2022/01/16 14:57:32;;;;;;;31.13;15.80;;;;;;;6.62;100.00;101996.91;10401907;28;20053;-65
2022/01/16 15:02:54;;;;;;;29.17;14.77;;;;;;;6.64;100.00;102001.13;10391474;28;20049;-64
2022/01/16 15:08:15;;;;;;;36.83;15.30;;;;;;;6.62;100.00;101996.91;10383025;28;20437;-64
2022/01/16 15:13:38;;;;;;;29.42;13.90;;;;;;;6.64;100.00;101997.69;10388903;28;20048;-65
2022/01/16 15:19:07;;;;;;;25.17;13.55;;;;;;;6.66;100.00;102004.53;10385842;28;20498;-64
2022/01/16 15:24:28;;;;;;;27.30;13.90;;;;;;;6.67;100.00;102002.81;10385615;28;20053;-64
2022/01/16 15:29:51;;;;;;;26.02;12.13;;;;;;;6.62;100.00;102009.84;10387699;28;20064;-64
2022/01/16 15:35:14;;;;;;;21.63;11.68;;;;;;;6.63;100.00;102003.78;10407892;28;20045;-65
2022/01/16 15:40:36;;;;;;;31.15;10.40;;;;;;;6.69;100.00;102018.22;10396795;28;20049;-65
2022/01/16 15:45:59;;;;;;;20.45;9.43;;;;;;;6.75;100.00;102022.41;10395530;28;20045;-64
2022/01/16 15:51:20;;;;;;;17.65;9.00;;;;;;;6.74;99.86;102015.53;10390612;28;20124;-64
2022/01/16 15:57:03;;;;;;;18.38;7.57;;;;;;;6.81;98.68;102017.03;10398444;28;20056;-65
2022/01/16 16:02:25;;;;;;;15.52;7.20;;;;;;;6.86;98.64;102017.75;10393385;28;20569;-65
2022/01/16 16:07:48;;;;;;;16.40;7.82;;;;;;;6.82;98.71;102026.50;10388935;28;20046;-65
2022/01/16 16:13:11;;;;;;;16.88;7.85;;;;;;;6.78;99.38;102048.19;10397312;28;20042;-64
2022/01/16 16:18:32;;;;;;;18.73;7.45;;;;;;;6.79;98.96;102037.81;10394735;28;20071;-64
2022/01/16 16:23:54;;;;;;;13.82;6.97;;;;;;;6.76;99.76;102043.06;10412356;28;20049;-65
2022/01/16 16:29:16;;;;;;;23.52;7.85;;;;;;;6.76;100.00;102063.81;10391372;28;20501;-65
2022/01/16 16:34:38;;;;;;;19.63;8.10;;;;;;;6.79;100.00;102076.69;10400871;28;20042;-66
2022/01/16 16:40:00;;;;;;;17.80;7.63;;;;;;;6.73;100.00;102069.06;10400259;28;20076;-65
2022/01/16 16:45:22;;;;;;;17.50;7.45;;;;;;;6.80;99.98;102074.91;10399900;28;20532;-65
2022/01/16 16:50:43;;;;;;;21.80;7.70;;;;;;;6.81;100.00;102089.56;10391242;28;20054;-65
2022/01/16 16:56:05;;;;;;;24.05;7.50;;;;;;;6.86;100.00;102078.19;10397353;28;20052;-65
2022/01/16 17:01:27;;;;;;;21.20;7.65;;;;;;;6.81;100.00;102076.63;10401310;28;20053;-65
2022/01/16 17:06:49;;;;;;;16.60;8.27;;;;;;;6.78;100.00;102082.75;10431400;28;20049;-67
2022/01/16 17:12:12;;;;;;;18.55;8.38;;;;;;;6.82;100.00;102089.56;10394385;28;20049;-65
2022/01/16 17:17:34;;;;;;;18.63;8.73;;;;;;;6.81;100.00;102087.84;10359347;28;20060;-66
2022/01/16 17:22:56;;;;;;;15.25;7.95;;;;;;;6.84;100.00;102092.91;10393678;28;20398;-65
2022/01/16 17:28:18;;;;;;;20.52;8.30;;;;;;;6.88;100.00;102099.72;10399704;28;20062;-64
2022/01/16 17:33:39;;;;;;;25.50;9.23;;;;;;;6.90;100.00;102110.91;10413300;28;20378;-65
2022/01/16 17:39:01;;;;;;;19.48;9.10;;;;;;;6.86;100.00;102108.44;10373305;28;20065;-66
2022/01/16 17:44:29;;;;;;;23.60;8.45;;;;;;;6.91;100.00;102114.34;10377313;28;20053;-65
2022/01/16 17:49:51;;;;;;;17.27;9.38;;;;;;;6.98;100.00;102124.50;10393669;28;20061;-66
2022/01/16 17:55:14;;;;;;;20.80;9.27;;;;;;;7.00;100.00;102135.66;10371357;28;20050;-66
2022/01/16 18:00:36;;;;;;;18.60;8.98;;;;;;;7.05;100.00;102138.13;10379377;28;20088;-66
2022/01/16 18:05:58;;;;;;;18.40;8.65;;;;;;;7.09;100.00;102138.00;10397012;28;20049;-66
2022/01/16 18:11:20;;;;;;;25.25;9.80;;;;;;;7.11;100.00;102151.75;10396923;28;20054;-66
2022/01/16 18:16:41;;;;;;;17.83;10.07;;;;;;;7.16;100.00;102152.44;10371067;28;20464;-65
2022/01/16 18:22:03;;;;;;;17.20;9.43;;;;;;;7.18;100.00;102161.03;10389664;28;20049;-66
2022/01/16 18:27:25;;;;;;;24.67;10.10;;;;;;;7.14;100.00;102146.47;10409848;28;20505;-66
2022/01/16 18:32:47;;;;;;;26.33;11.40;;;;;;;7.12;100.00;102145.69;10396873;28;20046;-66
2022/01/16 18:38:09;;;;;;;27.52;11.13;;;;;;;7.11;100.00;102149.16;10389934;28;20133;-66
2022/01/16 18:43:32;;;;;;;22.52;10.82;;;;;;;7.16;100.00;102156.81;10400866;28;20046;-66
2022/01/16 18:48:56;;;;;;;24.88;10.93;;;;;;;7.18;100.00;102161.03;10369478;28;20387;-65
2022/01/16 18:54:18;;;;;;;27.60;12.55;;;;;;;7.10;100.00;102183.75;10403790;28;20352;-66
2022/01/16 18:59:40;;;;;;;26.08;12.05;;;;;;;7.07;100.00;102177.78;10411040;28;20528;-65
2022/01/16 19:05:06;;;;;;;22.88;11.27;;;;;;;7.10;100.00;102176.00;10409311;28;20045;-65
2022/01/16 19:10:28;;;;;;;33.13;11.93;;;;;;;7.13;100.00;102180.22;10408851;28;20641;-65
2022/01/16 19:15:50;;;;;;;22.52;11.48;;;;;;;7.11;100.00;102185.47;10394796;28;20064;-65
2022/01/16 19:21:11;;;;;;;26.92;11.65;;;;;;;7.09;100.00;102187.25;10386565;28;20060;-66
2022/01/16 19:26:33;;;;;;;25.30;11.38;;;;;;;7.04;100.00;102189.09;10382823;28;20037;-65
2022/01/16 19:31:54;;;;;;;28.52;11.02;;;;;;;7.09;100.00;102197.63;10382301;28;20058;-65
2022/01/16 19:37:16;;;;;;;24.40;10.38;;;;;;;7.08;100.00;102190.72;10391248;28;20410;-66
2022/01/16 19:42:48;;;;;;;28.90;10.82;;;;;;;7.10;100.00;102199.31;10401495;28;20045;-66
2022/01/16 19:48:12;;;;;;;25.75;10.60;;;;;;;7.09;100.00;102196.75;10398429;28;20482;-65
2022/01/16 19:53:33;;;;;;;26.50;10.93;;;;;;;7.10;100.00;102199.31;10382378;28;20124;-65
2022/01/16 19:58:59;;;;;;;24.15;9.45;;;;;;;7.15;100.00;102207.78;10356561;28;20060;-65
2022/01/16 20:04:22;;;;;;;33.10;9.23;;;;;;;7.22;100.00;102214.53;10371938;28;20046;-67
2022/01/16 20:09:43;;;;;;;32.67;10.25;;;;;;;7.24;100.00;102225.69;10399005;28;20072;-66
2022/01/16 20:15:07;;;;;;;19.95;8.18;;;;;;;7.23;100.00;102225.72;10414737;28;20057;-65
2022/01/16 20:20:28;;;;;;;29.42;7.90;;;;;;;7.26;100.00;102229.09;10392740;28;20419;-65
2022/01/16 20:25:51;;;;;;;34.83;8.27;;;;;;;7.30;100.00;102233.28;10388317;28;20398;-67
2022/01/16 20:31:12;;;;;;;28.90;7.78;;;;;;;7.34;100.00;102244.44;10416322;28;20049;-67
2022/01/16 20:36:34;;;;;;;29.17;7.43;;;;;;;7.30;100.00;102237.63;10394247;28;20049;-65
2022/01/16 20:41:58;;;;;;;36.17;6.57;;;;;;;7.36;100.00;102248.69;10399571;28;20053;-65
2022/01/16 20:47:19;;;;;;;27.65;5.35;;;;;;;7.35;100.00;102257.34;10402535;28;20053;-65
2022/01/16 20:52:41;;;;;;;23.98;5.88;;;;;;;7.36;100.00;102269.44;10403882;28;20064;-65
2022/01/16 20:58:03;;;;;;;24.83;5.38;;;;;;;7.36;100.00;102279.81;10408696;28;20536;-65
2022/01/16 21:03:24;;;;;;;19.15;5.18;;;;;;;7.31;100.00;102286.03;10389197;28;20060;-66
2022/01/16 21:08:46;;;;;;;34.08;4.93;;;;;;;7.26;100.00;102299.13;10403217;28;20049;-66
2022/01/16 21:14:10;;;;;;;32.30;5.47;;;;;;;7.33;100.00;102315.38;10406949;28;20052;-65
2022/01/16 21:19:36;;;;;;;20.60;4.40;;;;;;;7.33;100.00;102324.00;10398266;28;20049;-65
2022/01/16 21:24:57;;;;;;;25.92;3.88;;;;;;;7.31;100.00;102332.72;10399776;28;20046;-65
2022/01/16 21:30:19;;;;;;;19.33;2.90;;;;;;;7.20;100.00;102322.63;10401559;28;20050;-64
2022/01/16 21:35:40;;;;;;;21.48;3.70;;;;;;;7.10;100.00;102312.53;10402596;28;20045;-65
2022/01/16 21:41:03;;;;;;;17.67;3.00;;;;;;;7.00;100.00;102348.22;10410787;28;20057;-65
2022/01/16 21:46:25;;;;;;;15.45;2.40;;;;;;;6.83;100.00;102340.03;10404905;28;20041;-65
2022/01/16 21:51:49;;;;;;;13.52;2.15;;;;;;;6.80;100.00;102340.09;10380575;28;20057;-65
2022/01/16 21:57:11;;;;;;;11.77;1.85;;;;;;;6.83;100.00;102341.75;10386775;28;20045;-65
2022/01/16 22:02:32;;;;;;;6.78;1.55;;;;;;;6.79;100.00;102351.34;10398396;28;20053;-64
2022/01/16 22:07:54;;;;;;;13.57;2.55;;;;;;;6.81;100.00;102362.53;10385683;28;20472;-65
2022/01/16 22:13:19;;;;;;;11.38;2.00;;;;;;;6.79;100.00;102372.09;10402952;28;20441;-65
2022/01/16 22:18:41;;;;;;;11.07;1.70;;;;;;;6.77;100.00;102376.47;10391982;28;20057;-65
2022/01/16 22:24:04;;;;;;;15.57;1.95;;;;;;;6.72;100.00;102378.28;10409131;28;20304;-65
2022/01/16 22:29:26;;;;;;;19.08;2.25;;;;;;;6.75;100.00;102388.59;10397639;28;20055;-65
2022/01/16 22:34:48;;;;;;;20.13;2.20;;;;;;;6.80;100.00;102397.13;10405321;28;20053;-65
2022/01/16 22:40:10;;;;;;;14.07;1.83;;;;;;;6.82;100.00;102399.66;10365070;28;20053;-65
2022/01/16 22:45:32;;;;;;;15.48;1.88;;;;;;;6.78;100.00;102409.25;10389154;28;20037;-65
2022/01/16 22:50:54;;;;;;;11.40;1.83;;;;;;;6.87;98.06;102418.56;10399484;28;20057;-66
2022/01/16 22:56:16;;;;;;;12.18;2.08;;;;;;;6.88;97.72;102425.44;10395765;28;20041;-65
2022/01/16 23:01:39;;;;;;;15.05;1.73;;;;;;;6.81;96.53;102424.75;10404372;28;20053;-65
2022/01/16 23:07:01;;;;;;;15.20;1.98;;;;;;;6.79;96.31;102421.31;10402462;28;20049;-65
2022/01/16 23:12:22;;;;;;;13.57;1.80;;;;;;;6.81;94.57;102429.91;10391281;28;20041;-65
2022/01/16 23:17:44;;;;;;;18.38;2.33;;;;;;;6.78;94.82;102411.84;10383184;28;20065;-65
2022/01/16 23:23:06;;;;;;;21.33;2.72;;;;;;;6.79;93.29;102395.41;10385356;28;20052;-65
2022/01/16 23:28:27;;;;;;;16.70;2.33;;;;;;;6.75;92.20;102413.66;10408767;28;20057;-64
2022/01/16 23:33:49;;;;;;;22.60;2.42;;;;;;;6.78;90.99;102411.84;10398711;28;20045;-64
2022/01/16 23:39:11;;;;;;;20.73;2.60;;;;;;;6.79;90.70;102416.16;10394293;28;20050;-64
2022/01/16 23:44:33;;;;;;;18.05;2.17;;;;;;;6.74;90.46;102424.91;10395140;28;20052;-64
2022/01/16 23:49:55;;;;;;;19.92;2.42;;;;;;;6.80;89.33;102427.34;10396988;28;20053;-64
2022/01/16 23:55:17;;;;;;;29.98;2.67;;;;;;;6.76;89.93;102423.16;10378777;28;20410;-64
